createdAt,value
2017-12-25T00:00:45.706Z,91
2017-12-25T00:02:45.634Z,91
2017-12-25T00:03:45.667Z,91
2017-12-25T00:04:48.445Z,91
2017-12-25T00:05:45.594Z,91
2017-12-25T00:06:45.825Z,91
2017-12-25T00:07:45.864Z,90
2017-12-25T00:08:45.835Z,90
2017-12-25T00:09:45.484Z,90
2017-12-25T00:10:45.694Z,90
2017-12-25T00:11:45.680Z,90
2017-12-25T00:12:45.735Z,91
2017-12-25T00:13:45.662Z,91
2017-12-25T00:14:45.452Z,91
2017-12-25T00:15:45.467Z,91
2017-12-25T00:16:45.871Z,91
2017-12-25T00:17:45.708Z,91
2017-12-25T00:18:45.469Z,91
2017-12-25T00:19:45.699Z,91
2017-12-25T00:20:45.900Z,91
2017-12-25T00:21:45.477Z,91
2017-12-25T00:22:45.485Z,91
2017-12-25T00:23:45.734Z,91
2017-12-25T00:24:45.495Z,91
2017-12-25T00:25:45.870Z,91
2017-12-25T00:26:45.678Z,91
2017-12-25T00:27:45.511Z,91
2017-12-25T00:28:45.796Z,91
2017-12-25T00:29:45.796Z,91
2017-12-25T00:30:45.876Z,91
2017-12-25T00:31:45.473Z,91
2017-12-25T00:32:45.733Z,91
2017-12-25T00:33:45.944Z,91
2017-12-25T00:34:45.718Z,91
2017-12-25T00:35:45.551Z,91
2017-12-25T00:36:45.503Z,91
2017-12-25T00:38:45.505Z,91
2017-12-25T00:39:45.527Z,91
2017-12-25T00:40:45.604Z,91
2017-12-25T00:41:45.525Z,91
2017-12-25T00:42:45.828Z,91
2017-12-25T00:43:45.755Z,91
2017-12-25T00:44:45.549Z,91
2017-12-25T00:45:45.765Z,91
2017-12-25T00:46:45.591Z,91
2017-12-25T00:47:45.757Z,91
2017-12-25T00:48:45.757Z,91
2017-12-25T00:49:45.564Z,91
2017-12-25T00:50:45.568Z,91
2017-12-25T00:51:45.569Z,91
2017-12-25T00:52:45.771Z,91
2017-12-25T00:53:45.549Z,91
2017-12-25T00:54:45.930Z,91
2017-12-25T00:55:45.582Z,91
2017-12-25T00:56:45.761Z,91
2017-12-25T00:57:45.788Z,91
2017-12-25T00:58:45.565Z,91
2017-12-25T00:59:45.784Z,91
2017-12-25T01:00:45.798Z,91
2017-12-25T01:01:45.786Z,91
2017-12-25T01:02:45.881Z,91
2017-12-25T01:03:45.774Z,91
2017-12-25T01:04:45.589Z,91
2017-12-25T01:05:45.793Z,91
2017-12-25T01:06:45.736Z,91
2017-12-25T01:07:45.762Z,91
2017-12-25T01:08:45.585Z,91
2017-12-25T01:09:45.789Z,91
2017-12-25T01:10:45.948Z,90
2017-12-25T01:11:45.977Z,90
2017-12-25T01:12:45.803Z,90
2017-12-25T01:13:46.056Z,90
2017-12-25T01:15:45.799Z,90
2017-12-25T01:16:45.782Z,90
2017-12-25T01:17:45.789Z,90
2017-12-25T01:18:45.790Z,90
2017-12-25T01:19:45.771Z,90
2017-12-25T01:20:45.992Z,90
2017-12-25T01:21:45.990Z,90
2017-12-25T01:22:45.605Z,90
2017-12-25T01:23:45.607Z,90
2017-12-25T01:24:45.974Z,90
2017-12-25T01:25:45.644Z,90
2017-12-25T01:26:45.994Z,90
2017-12-25T01:27:45.635Z,90
2017-12-25T01:28:45.998Z,90
2017-12-25T01:29:45.987Z,90
2017-12-25T01:30:45.824Z,90
2017-12-25T01:31:45.808Z,90
2017-12-25T01:32:45.840Z,90
2017-12-25T01:33:46.015Z,90
2017-12-25T01:34:45.827Z,90
2017-12-25T01:35:45.839Z,90
2017-12-25T01:36:46.205Z,90
2017-12-25T01:37:45.585Z,90
2017-12-25T01:38:45.790Z,90
2017-12-25T01:39:45.624Z,90
2017-12-25T01:40:45.903Z,90
2017-12-25T01:42:45.659Z,91
2017-12-25T01:43:45.820Z,90
2017-12-25T01:44:45.790Z,90
2017-12-25T01:45:45.653Z,90
2017-12-25T01:46:46.037Z,90
2017-12-25T01:47:45.981Z,90
2017-12-25T01:48:45.841Z,90
2017-12-25T01:49:45.872Z,90
2017-12-25T01:50:45.624Z,90
2017-12-25T01:51:46.022Z,90
2017-12-25T01:52:45.667Z,90
2017-12-25T01:53:46.062Z,90
2017-12-25T01:54:45.880Z,90
2017-12-25T01:55:45.687Z,90
2017-12-25T01:56:45.716Z,90
2017-12-25T01:57:45.639Z,90
2017-12-25T01:58:46.033Z,90
2017-12-25T01:59:46.105Z,90
2017-12-25T02:00:46.082Z,90
2017-12-25T02:01:45.869Z,90
2017-12-25T02:02:45.705Z,90
2017-12-25T02:03:45.935Z,90
2017-12-25T02:04:46.312Z,90
2017-12-25T02:05:46.063Z,90
2017-12-25T02:06:45.673Z,90
2017-12-25T02:07:45.897Z,90
2017-12-25T02:08:45.699Z,90
2017-12-25T02:09:45.875Z,90
2017-12-25T02:10:45.882Z,90
2017-12-25T02:11:45.885Z,90
2017-12-25T02:12:45.898Z,90
2017-12-25T02:13:45.685Z,90
2017-12-25T02:14:45.740Z,90
2017-12-25T02:15:46.066Z,90
2017-12-25T02:16:45.904Z,90
2017-12-25T02:17:46.090Z,90
2017-12-25T02:18:45.745Z,90
2017-12-25T02:19:46.107Z,90
2017-12-25T02:20:45.868Z,90
2017-12-25T02:21:45.914Z,90
2017-12-25T02:22:45.878Z,90
2017-12-25T02:23:45.749Z,90
2017-12-25T02:24:45.902Z,90
2017-12-25T02:25:46.984Z,90
2017-12-25T02:26:45.706Z,90
2017-12-25T02:27:45.912Z,90
2017-12-25T02:28:45.891Z,90
2017-12-25T02:29:46.141Z,90
2017-12-25T02:32:45.922Z,91
2017-12-25T02:33:46.036Z,91
2017-12-25T02:34:46.580Z,90
2017-12-25T02:35:46.148Z,90
2017-12-25T02:36:45.736Z,90
2017-12-25T02:37:45.996Z,91
2017-12-25T02:38:45.691Z,91
2017-12-25T02:39:45.782Z,90
2017-12-25T02:40:45.719Z,90
2017-12-25T02:41:46.009Z,90
2017-12-25T02:42:46.142Z,91
2017-12-25T02:43:46.553Z,91
2017-12-25T02:44:46.123Z,91
2017-12-25T02:46:45.948Z,91
2017-12-25T02:49:45.794Z,91
2017-12-25T02:50:45.914Z,91
2017-12-25T02:52:46.005Z,91
2017-12-25T02:53:45.966Z,91
2017-12-25T02:54:46.144Z,91
2017-12-25T02:55:46.208Z,91
2017-12-25T02:56:45.949Z,91
2017-12-25T02:57:45.779Z,91
2017-12-25T02:58:45.962Z,91
2017-12-25T02:59:45.999Z,91
2017-12-25T03:00:46.180Z,91
2017-12-25T03:01:46.011Z,91
2017-12-25T03:02:46.022Z,91
2017-12-25T03:04:45.959Z,91
2017-12-25T03:05:46.006Z,91
2017-12-25T03:06:45.753Z,91
2017-12-25T03:07:46.203Z,91
2017-12-25T03:08:46.195Z,91
2017-12-25T03:09:46.244Z,91
2017-12-25T03:10:46.044Z,91
2017-12-25T03:11:46.191Z,91
2017-12-25T03:12:45.750Z,91
2017-12-25T03:13:45.826Z,91
2017-12-25T03:14:46.006Z,91
2017-12-25T03:15:46.161Z,91
2017-12-25T03:16:45.974Z,91
2017-12-25T03:17:46.045Z,91
2017-12-25T03:18:46.009Z,91
2017-12-25T03:19:46.256Z,91
2017-12-25T03:20:46.034Z,91
2017-12-25T03:21:46.055Z,91
2017-12-25T03:22:46.183Z,91
2017-12-25T03:23:46.005Z,91
2017-12-25T03:24:45.782Z,91
2017-12-25T03:25:45.823Z,92
2017-12-25T03:26:46.063Z,92
2017-12-25T03:27:46.054Z,92
2017-12-25T03:28:45.995Z,92
2017-12-25T03:29:46.734Z,92
2017-12-25T03:31:46.041Z,92
2017-12-25T03:32:45.850Z,92
2017-12-25T03:33:45.844Z,92
2017-12-25T03:34:46.067Z,92
2017-12-25T03:35:45.876Z,92
2017-12-25T03:36:46.006Z,92
2017-12-25T03:37:46.276Z,92
2017-12-25T03:38:46.212Z,92
2017-12-25T03:39:46.072Z,92
2017-12-25T03:40:46.022Z,92
2017-12-25T03:41:46.072Z,92
2017-12-25T03:42:46.041Z,92
2017-12-25T03:43:46.021Z,92
2017-12-25T03:44:46.034Z,92
2017-12-25T03:45:46.074Z,92
2017-12-25T03:46:46.245Z,92
2017-12-25T03:47:46.108Z,92
2017-12-25T03:49:46.122Z,92
2017-12-25T03:50:46.079Z,92
2017-12-25T03:51:45.883Z,92
2017-12-25T03:52:46.016Z,92
2017-12-25T03:53:47.022Z,92
2017-12-25T03:54:45.868Z,92
2017-12-25T03:55:46.372Z,92
2017-12-25T03:56:45.850Z,92
2017-12-25T03:57:46.076Z,92
2017-12-25T03:58:46.095Z,92
2017-12-25T03:59:46.111Z,92
2017-12-25T04:00:46.396Z,92
2017-12-25T04:01:46.164Z,92
2017-12-25T04:02:45.855Z,92
2017-12-25T04:03:46.084Z,92
2017-12-25T04:04:46.065Z,92
2017-12-25T04:05:46.150Z,92
2017-12-25T04:07:46.103Z,92
2017-12-25T04:08:46.251Z,92
2017-12-25T04:09:46.108Z,92
2017-12-25T04:10:46.270Z,92
2017-12-25T04:11:46.146Z,92
2017-12-25T04:12:46.125Z,92
2017-12-25T04:13:47.058Z,92
2017-12-25T04:14:46.109Z,92
2017-12-25T04:15:46.135Z,92
2017-12-25T04:16:46.165Z,92
2017-12-25T04:17:45.953Z,92
2017-12-25T04:18:46.125Z,92
2017-12-25T04:19:46.336Z,92
2017-12-25T04:20:46.134Z,92
2017-12-25T04:21:46.134Z,92
2017-12-25T04:22:46.129Z,92
2017-12-25T04:23:46.336Z,92
2017-12-25T04:24:46.132Z,92
2017-12-25T04:25:46.137Z,92
2017-12-25T04:26:46.126Z,92
2017-12-25T04:27:46.147Z,92
2017-12-25T04:28:46.327Z,92
2017-12-25T04:29:45.921Z,92
2017-12-25T04:30:46.123Z,92
2017-12-25T04:32:46.362Z,93
2017-12-25T04:33:46.345Z,93
2017-12-25T04:34:46.316Z,92
2017-12-25T04:35:46.394Z,92
2017-12-25T04:36:46.131Z,92
2017-12-25T04:37:46.134Z,92
2017-12-25T04:38:46.175Z,92
2017-12-25T04:39:46.126Z,92
2017-12-25T04:40:46.078Z,92
2017-12-25T04:41:46.154Z,92
2017-12-25T04:42:46.334Z,92
2017-12-25T04:43:46.347Z,92
2017-12-25T04:44:46.162Z,92
2017-12-25T04:45:46.450Z,92
2017-12-25T04:46:46.360Z,92
2017-12-25T04:47:45.961Z,92
2017-12-25T04:48:46.319Z,92
2017-12-25T04:49:45.963Z,92
2017-12-25T04:50:46.227Z,92
2017-12-25T04:51:46.195Z,92
2017-12-25T04:52:46.207Z,92
2017-12-25T04:53:46.311Z,92
2017-12-25T04:54:46.341Z,92
2017-12-25T04:55:46.170Z,92
2017-12-25T04:56:46.205Z,92
2017-12-25T04:57:46.163Z,92
2017-12-25T04:58:46.186Z,92
2017-12-25T04:59:46.155Z,92
2017-12-25T05:00:46.171Z,92
2017-12-25T05:01:46.321Z,92
2017-12-25T05:02:46.376Z,92
2017-12-25T05:03:46.367Z,92
2017-12-25T05:04:46.759Z,92
2017-12-25T05:05:46.194Z,92
2017-12-25T05:06:46.402Z,92
2017-12-25T05:07:46.195Z,92
2017-12-25T05:08:46.163Z,92
2017-12-25T05:09:46.388Z,92
2017-12-25T05:10:46.208Z,92
2017-12-25T05:11:46.178Z,92
2017-12-25T05:12:46.178Z,92
2017-12-25T05:13:46.247Z,92
2017-12-25T05:14:46.367Z,92
2017-12-25T05:16:46.203Z,92
2017-12-25T05:17:46.228Z,92
2017-12-25T05:18:46.201Z,92
2017-12-25T05:19:46.217Z,92
2017-12-25T05:20:46.200Z,92
2017-12-25T05:21:46.190Z,92
2017-12-25T05:22:46.234Z,92
2017-12-25T05:23:46.190Z,92
2017-12-25T05:26:46.198Z,92
2017-12-25T05:27:46.434Z,92
2017-12-25T05:28:46.394Z,92
2017-12-25T05:29:46.006Z,92
2017-12-25T05:30:46.260Z,92
2017-12-25T05:31:46.429Z,92
2017-12-25T05:33:46.406Z,92
2017-12-25T05:34:46.234Z,92
2017-12-25T05:35:46.012Z,92
2017-12-25T05:36:46.061Z,92
2017-12-25T05:37:46.250Z,92
2017-12-25T05:38:46.301Z,92
2017-12-25T05:39:46.269Z,92
2017-12-25T05:40:46.440Z,92
2017-12-25T05:41:46.278Z,92
2017-12-25T05:42:46.009Z,92
2017-12-25T05:43:46.066Z,92
2017-12-25T05:44:46.030Z,92
2017-12-25T05:45:46.285Z,92
2017-12-25T05:46:46.258Z,92
2017-12-25T05:47:46.297Z,92
2017-12-25T05:48:46.250Z,92
2017-12-25T05:50:46.238Z,92
2017-12-25T05:51:46.265Z,92
2017-12-25T05:52:46.303Z,92
2017-12-25T05:53:46.306Z,92
2017-12-25T05:54:46.308Z,92
2017-12-25T05:55:46.272Z,92
2017-12-25T05:56:46.280Z,92
2017-12-25T05:57:46.472Z,92
2017-12-25T05:58:46.151Z,93
2017-12-25T06:00:46.545Z,92
2017-12-25T06:01:46.511Z,92
2017-12-25T06:02:46.309Z,92
2017-12-25T06:03:46.484Z,92
2017-12-25T06:04:46.095Z,92
2017-12-25T06:05:46.286Z,92
2017-12-25T06:06:46.106Z,92
2017-12-25T06:07:46.111Z,92
2017-12-25T06:08:46.337Z,92
2017-12-25T06:09:46.125Z,92
2017-12-25T06:10:46.103Z,92
2017-12-25T06:11:46.936Z,92
2017-12-25T06:12:46.165Z,92
2017-12-25T06:13:46.302Z,92
2017-12-25T06:14:46.122Z,92
2017-12-25T06:15:46.412Z,92
2017-12-25T06:16:46.122Z,92
2017-12-25T06:17:46.319Z,92
2017-12-25T06:18:46.344Z,92
2017-12-25T06:19:46.168Z,92
2017-12-25T06:20:46.572Z,93
2017-12-25T06:21:46.690Z,93
2017-12-25T06:22:46.110Z,93
2017-12-25T06:23:46.128Z,93
2017-12-25T06:24:46.509Z,93
2017-12-25T06:25:46.333Z,93
2017-12-25T06:26:46.363Z,93
2017-12-25T06:27:46.347Z,93
2017-12-25T06:28:46.366Z,93
2017-12-25T06:29:46.333Z,93
2017-12-25T06:30:46.634Z,93
2017-12-25T06:31:46.176Z,93
2017-12-25T06:32:46.355Z,93
2017-12-25T06:33:46.347Z,93
2017-12-25T06:34:46.584Z,93
2017-12-25T06:35:46.153Z,93
2017-12-25T06:36:46.377Z,93
2017-12-25T06:37:46.570Z,93
2017-12-25T06:38:46.509Z,93
2017-12-25T06:39:46.396Z,93
2017-12-25T06:40:46.173Z,93
2017-12-25T06:42:46.413Z,93
2017-12-25T06:44:46.361Z,93
2017-12-25T06:45:46.589Z,93
2017-12-25T06:46:46.576Z,93
2017-12-25T06:47:46.340Z,93
2017-12-25T06:48:46.404Z,93
2017-12-25T06:49:46.386Z,93
2017-12-25T06:50:46.454Z,93
2017-12-25T06:51:46.397Z,93
2017-12-25T06:52:46.725Z,93
2017-12-25T06:53:46.599Z,93
2017-12-25T06:54:46.394Z,93
2017-12-25T06:55:46.405Z,93
2017-12-25T06:56:46.444Z,93
2017-12-25T06:57:46.207Z,93
2017-12-25T06:58:46.628Z,93
2017-12-25T06:59:46.427Z,93
2017-12-25T07:00:46.420Z,93
2017-12-25T07:01:46.236Z,93
2017-12-25T07:02:46.219Z,93
2017-12-25T07:03:46.486Z,93
2017-12-25T07:04:46.412Z,93
2017-12-25T07:05:47.948Z,93
2017-12-25T07:06:46.235Z,93
2017-12-25T07:07:46.250Z,93
2017-12-25T07:08:46.443Z,93
2017-12-25T07:09:46.481Z,93
2017-12-25T07:10:46.479Z,93
2017-12-25T07:11:46.461Z,93
2017-12-25T07:12:46.240Z,93
2017-12-25T07:13:46.440Z,93
2017-12-25T07:14:46.481Z,93
2017-12-25T07:15:46.267Z,93
2017-12-25T07:16:46.457Z,94
2017-12-25T07:17:46.651Z,94
2017-12-25T07:18:46.287Z,94
2017-12-25T07:19:46.470Z,94
2017-12-25T07:20:46.711Z,94
2017-12-25T07:21:46.484Z,94
2017-12-25T07:22:46.642Z,94
2017-12-25T07:24:46.274Z,94
2017-12-25T07:25:46.523Z,94
2017-12-25T07:26:46.268Z,94
2017-12-25T07:27:46.525Z,94
2017-12-25T07:28:46.319Z,94
2017-12-25T07:29:46.320Z,94
2017-12-25T07:30:46.490Z,94
2017-12-25T07:31:46.729Z,94
2017-12-25T07:32:46.499Z,94
2017-12-25T07:33:46.485Z,94
2017-12-25T07:34:46.322Z,94
2017-12-25T07:35:46.508Z,94
2017-12-25T07:36:46.753Z,94
2017-12-25T07:37:46.521Z,94
2017-12-25T07:38:46.482Z,94
2017-12-25T07:39:47.202Z,94
2017-12-25T07:40:46.520Z,94
2017-12-25T07:41:46.302Z,94
2017-12-25T07:42:46.552Z,94
2017-12-25T07:43:46.279Z,94
2017-12-25T07:44:46.287Z,94
2017-12-25T07:45:46.507Z,94
2017-12-25T07:46:46.689Z,94
2017-12-25T07:47:46.516Z,94
2017-12-25T07:48:46.692Z,94
2017-12-25T07:49:46.488Z,94
2017-12-25T07:50:46.537Z,94
2017-12-25T07:51:46.519Z,94
2017-12-25T07:52:46.510Z,94
2017-12-25T07:53:46.570Z,94
2017-12-25T07:54:46.566Z,94
2017-12-25T07:55:46.327Z,94
2017-12-25T07:56:46.697Z,94
2017-12-25T07:57:46.536Z,94
2017-12-25T07:58:46.588Z,94
2017-12-25T07:59:46.540Z,94
2017-12-25T08:00:46.538Z,94
2017-12-25T08:01:46.332Z,94
2017-12-25T08:02:46.744Z,94
2017-12-25T08:03:46.560Z,94
2017-12-25T08:04:46.586Z,94
2017-12-25T08:05:46.762Z,94
2017-12-25T08:06:46.873Z,94
2017-12-25T08:07:46.340Z,94
2017-12-25T08:08:46.324Z,94
2017-12-25T08:09:46.555Z,94
2017-12-25T08:10:46.565Z,94
2017-12-25T08:12:46.580Z,94
2017-12-25T08:13:46.795Z,94
2017-12-25T08:14:46.902Z,94
2017-12-25T08:15:46.382Z,94
2017-12-25T08:17:46.405Z,94
2017-12-25T08:18:46.749Z,94
2017-12-25T08:19:46.398Z,94
2017-12-25T08:20:46.628Z,94
2017-12-25T08:21:46.857Z,94
2017-12-25T08:22:46.715Z,94
2017-12-25T08:23:46.820Z,94
2017-12-25T08:24:46.412Z,94
2017-12-25T08:25:46.764Z,94
2017-12-25T08:26:46.762Z,94
2017-12-25T08:27:46.389Z,94
2017-12-25T08:28:46.796Z,94
2017-12-25T08:29:46.620Z,94
2017-12-25T08:30:46.762Z,94
2017-12-25T08:31:46.512Z,94
2017-12-25T08:32:46.452Z,94
2017-12-25T08:33:46.875Z,94
2017-12-25T08:36:46.616Z,94
2017-12-25T08:37:46.686Z,94
2017-12-25T08:39:46.617Z,94
2017-12-25T08:40:46.451Z,94
2017-12-25T08:41:46.824Z,94
2017-12-25T08:42:46.583Z,94
2017-12-25T08:43:46.692Z,94
2017-12-25T08:44:46.865Z,94
2017-12-25T08:45:46.476Z,94
2017-12-25T08:46:46.617Z,94
2017-12-25T08:47:46.466Z,94
2017-12-25T08:48:46.777Z,94
2017-12-25T08:49:46.431Z,94
2017-12-25T08:50:46.614Z,94
2017-12-25T08:51:46.639Z,94
2017-12-25T08:52:46.654Z,94
2017-12-25T08:53:46.633Z,94
2017-12-25T08:54:46.609Z,94
2017-12-25T08:55:46.621Z,94
2017-12-25T08:56:46.628Z,94
2017-12-25T08:57:46.628Z,94
2017-12-25T08:58:46.640Z,94
2017-12-25T09:00:46.419Z,94
2017-12-25T09:01:46.796Z,94
2017-12-25T09:02:46.864Z,94
2017-12-25T09:03:46.445Z,94
2017-12-25T09:04:46.642Z,94
2017-12-25T09:05:46.618Z,94
2017-12-25T09:06:46.442Z,94
2017-12-25T09:07:46.395Z,94
2017-12-25T09:08:46.689Z,94
2017-12-25T09:09:46.638Z,94
2017-12-25T09:10:46.679Z,94
2017-12-25T09:11:46.680Z,94
2017-12-25T09:12:46.841Z,94
2017-12-25T09:13:46.658Z,94
2017-12-25T09:14:46.450Z,94
2017-12-25T09:15:46.459Z,94
2017-12-25T09:16:46.653Z,94
2017-12-25T09:17:46.889Z,94
2017-12-25T09:18:46.665Z,94
2017-12-25T09:19:46.477Z,94
2017-12-25T09:20:46.765Z,94
2017-12-25T09:21:46.684Z,94
2017-12-25T09:22:46.739Z,94
2017-12-25T09:23:46.439Z,94
2017-12-25T09:24:46.884Z,94
2017-12-25T09:25:46.537Z,94
2017-12-25T09:27:46.913Z,94
2017-12-25T09:28:46.881Z,94
2017-12-25T09:29:46.840Z,94
2017-12-25T09:30:46.765Z,94
2017-12-25T09:31:46.497Z,94
2017-12-25T09:32:46.721Z,94
2017-12-25T09:33:46.562Z,94
2017-12-25T09:35:46.934Z,94
2017-12-25T09:36:46.968Z,94
2017-12-25T09:37:46.722Z,94
2017-12-25T09:39:46.742Z,94
2017-12-25T09:40:46.576Z,94
2017-12-25T09:41:46.890Z,94
2017-12-25T09:42:46.884Z,94
2017-12-25T09:43:46.729Z,94
2017-12-25T09:44:46.742Z,94
2017-12-25T09:45:46.695Z,94
2017-12-25T09:46:46.741Z,94
2017-12-25T09:47:46.574Z,94
2017-12-25T09:48:46.507Z,94
2017-12-25T09:49:46.519Z,94
2017-12-25T09:50:46.749Z,94
2017-12-25T09:51:46.499Z,94
2017-12-25T09:52:46.724Z,94
2017-12-25T09:53:46.540Z,94
2017-12-25T09:54:46.938Z,93
2017-12-25T09:55:46.756Z,93
2017-12-25T09:56:47.011Z,93
2017-12-25T09:57:46.825Z,93
2017-12-25T09:58:47.239Z,93
2017-12-25T09:59:47.053Z,93
2017-12-25T10:00:46.758Z,93
2017-12-25T10:01:46.923Z,93
2017-12-25T10:02:46.795Z,93
2017-12-25T10:03:46.590Z,93
2017-12-25T10:04:46.561Z,93
2017-12-25T10:05:46.788Z,93
2017-12-25T10:06:46.559Z,93
2017-12-25T10:07:46.941Z,93
2017-12-25T10:08:46.567Z,93
2017-12-25T10:09:46.851Z,94
2017-12-25T10:10:46.943Z,94
2017-12-25T10:11:47.008Z,94
2017-12-25T10:12:46.820Z,93
2017-12-25T10:13:46.579Z,93
2017-12-25T10:14:46.796Z,93
2017-12-25T10:15:46.899Z,93
2017-12-25T10:16:46.759Z,93
2017-12-25T10:17:46.769Z,93
2017-12-25T10:18:46.568Z,93
2017-12-25T10:20:46.825Z,93
2017-12-25T10:21:46.584Z,93
2017-12-25T10:22:46.994Z,93
2017-12-25T10:23:46.592Z,93
2017-12-25T10:24:46.795Z,93
2017-12-25T10:26:47.046Z,93
2017-12-25T10:27:46.788Z,93
2017-12-25T10:28:46.797Z,93
2017-12-25T10:29:46.789Z,93
2017-12-25T10:30:46.836Z,93
2017-12-25T10:31:46.817Z,93
2017-12-25T10:32:46.898Z,93
2017-12-25T10:33:46.840Z,93
2017-12-25T10:34:47.121Z,93
2017-12-25T10:35:48.690Z,93
2017-12-25T10:36:47.000Z,93
2017-12-25T10:37:46.817Z,93
2017-12-25T10:38:47.034Z,93
2017-12-25T10:39:46.818Z,93
2017-12-25T10:41:46.626Z,94
2017-12-25T10:42:46.821Z,94
2017-12-25T10:43:47.767Z,94
2017-12-25T10:44:46.842Z,94
2017-12-25T10:45:47.012Z,94
2017-12-25T10:46:46.880Z,94
2017-12-25T10:48:46.694Z,94
2017-12-25T10:49:46.854Z,94
2017-12-25T10:50:46.860Z,94
2017-12-25T10:51:46.845Z,94
2017-12-25T10:52:46.849Z,93
2017-12-25T10:53:46.878Z,93
2017-12-25T10:54:47.141Z,93
2017-12-25T10:55:46.846Z,93
2017-12-25T10:56:47.050Z,93
2017-12-25T10:57:46.873Z,93
2017-12-25T10:58:46.860Z,93
2017-12-25T10:59:46.645Z,93
2017-12-25T11:00:46.657Z,93
2017-12-25T11:01:46.860Z,93
2017-12-25T11:02:46.883Z,93
2017-12-25T11:03:47.056Z,93
2017-12-25T11:04:46.899Z,93
2017-12-25T11:05:47.150Z,93
2017-12-25T11:06:46.877Z,93
2017-12-25T11:07:46.931Z,93
2017-12-25T11:08:46.892Z,93
2017-12-25T11:09:46.882Z,93
2017-12-25T11:10:46.688Z,92
2017-12-25T11:11:46.989Z,92
2017-12-25T11:12:46.907Z,92
2017-12-25T11:13:47.086Z,92
2017-12-25T11:14:47.083Z,92
2017-12-25T11:15:46.944Z,92
2017-12-25T11:17:46.930Z,92
2017-12-25T11:18:46.891Z,92
2017-12-25T11:19:46.912Z,92
2017-12-25T11:20:47.125Z,91
2017-12-25T11:21:46.754Z,91
2017-12-25T11:22:46.964Z,91
2017-12-25T11:23:46.751Z,91
2017-12-25T11:26:47.122Z,91
2017-12-25T11:27:46.747Z,91
2017-12-25T11:28:46.760Z,91
2017-12-25T11:29:46.776Z,91
2017-12-25T11:30:46.936Z,91
2017-12-25T11:31:47.155Z,91
2017-12-25T11:32:46.933Z,91
2017-12-25T11:33:46.821Z,90
2017-12-25T11:34:46.938Z,90
2017-12-25T11:35:47.380Z,90
2017-12-25T11:36:47.061Z,89
2017-12-25T11:37:46.949Z,89
2017-12-25T11:38:46.787Z,89
2017-12-25T11:39:47.202Z,89
2017-12-25T11:40:47.162Z,89
2017-12-25T11:41:46.782Z,88
2017-12-25T11:42:46.966Z,88
2017-12-25T11:43:46.781Z,88
2017-12-25T11:44:47.006Z,88
2017-12-25T11:45:46.786Z,88
2017-12-25T11:46:47.269Z,87
2017-12-25T11:47:47.162Z,87
2017-12-25T11:48:46.815Z,87
2017-12-25T11:49:46.983Z,87
2017-12-25T11:50:47.047Z,87
2017-12-25T11:51:47.005Z,83
2017-12-25T11:52:47.198Z,83
2017-12-25T11:53:46.986Z,83
2017-12-25T11:54:46.801Z,83
2017-12-25T11:55:46.768Z,83
2017-12-25T11:56:46.810Z,83
2017-12-25T11:57:46.985Z,83
2017-12-25T11:58:46.783Z,82
2017-12-25T11:59:47.196Z,82
2017-12-25T12:00:46.777Z,82
2017-12-25T12:01:46.803Z,81
2017-12-25T12:02:47.026Z,81
2017-12-25T12:03:46.972Z,81
2017-12-25T12:04:47.209Z,81
2017-12-25T12:05:46.995Z,81
2017-12-25T12:06:46.855Z,81
2017-12-25T12:07:47.058Z,81
2017-12-25T12:08:47.041Z,81
2017-12-25T12:09:46.990Z,82
2017-12-25T12:10:47.012Z,82
2017-12-25T12:11:47.000Z,81
2017-12-25T12:12:47.043Z,81
2017-12-25T12:13:47.322Z,81
2017-12-25T12:14:47.029Z,81
2017-12-25T12:15:47.273Z,81
2017-12-25T12:16:47.006Z,80
2017-12-25T12:17:47.191Z,80
2017-12-25T12:18:46.795Z,80
2017-12-25T12:19:47.077Z,79
2017-12-25T12:20:47.217Z,79
2017-12-25T12:21:47.020Z,78
2017-12-25T12:22:47.044Z,78
2017-12-25T12:23:47.023Z,78
2017-12-25T12:24:46.879Z,78
2017-12-25T12:27:47.080Z,77
2017-12-25T12:28:47.105Z,77
2017-12-25T12:29:46.853Z,77
2017-12-25T12:30:47.111Z,77
2017-12-25T12:31:47.021Z,77
2017-12-25T12:32:47.199Z,77
2017-12-25T12:33:46.815Z,77
2017-12-25T12:34:47.029Z,76
2017-12-25T12:35:46.837Z,76
2017-12-25T12:36:46.895Z,76
2017-12-25T12:37:46.874Z,76
2017-12-25T12:38:47.042Z,76
2017-12-25T12:39:47.056Z,75
2017-12-25T12:40:47.081Z,75
2017-12-25T12:41:46.854Z,75
2017-12-25T12:42:47.290Z,76
2017-12-25T12:43:47.300Z,76
2017-12-25T12:44:47.285Z,77
2017-12-25T12:45:47.078Z,77
2017-12-25T12:46:47.049Z,77
2017-12-25T12:47:47.163Z,79
2017-12-25T12:48:47.095Z,79
2017-12-25T12:49:47.141Z,79
2017-12-25T12:50:47.285Z,79
2017-12-25T12:51:47.236Z,79
2017-12-25T12:52:46.905Z,79
2017-12-25T12:53:47.123Z,79
2017-12-25T12:54:47.105Z,78
2017-12-25T12:55:47.268Z,78
2017-12-25T12:56:47.086Z,78
2017-12-25T12:57:47.070Z,78
2017-12-25T12:58:47.167Z,78
2017-12-25T12:59:47.116Z,78
2017-12-25T13:00:47.059Z,78
2017-12-25T13:01:47.300Z,78
2017-12-25T13:02:47.251Z,77
2017-12-25T13:03:46.924Z,77
2017-12-25T13:04:47.110Z,77
2017-12-25T13:05:47.103Z,77
2017-12-25T13:06:47.087Z,77
2017-12-25T13:07:46.928Z,77
2017-12-25T13:08:47.088Z,77
2017-12-25T13:09:47.148Z,77
2017-12-25T13:10:46.929Z,77
2017-12-25T13:11:47.123Z,77
2017-12-25T13:12:47.305Z,77
2017-12-25T13:13:47.723Z,77
2017-12-25T13:14:47.116Z,77
2017-12-25T13:15:46.933Z,76
2017-12-25T13:16:47.132Z,76
2017-12-25T13:17:47.342Z,77
2017-12-25T13:18:47.144Z,77
2017-12-25T13:19:47.209Z,77
2017-12-25T13:20:47.139Z,77
2017-12-25T13:21:47.174Z,77
2017-12-25T13:22:47.134Z,77
2017-12-25T13:23:47.141Z,77
2017-12-25T13:24:47.188Z,77
2017-12-25T13:25:47.169Z,78
2017-12-25T13:26:47.123Z,78
2017-12-25T13:27:47.154Z,78
2017-12-25T13:28:47.362Z,78
2017-12-25T13:30:47.353Z,77
2017-12-25T13:32:47.142Z,77
2017-12-25T13:33:47.430Z,77
2017-12-25T13:34:47.135Z,77
2017-12-25T13:35:47.176Z,78
2017-12-25T13:36:47.333Z,78
2017-12-25T13:37:47.178Z,78
2017-12-25T13:38:47.262Z,78
2017-12-25T13:39:47.043Z,78
2017-12-25T13:40:47.363Z,78
2017-12-25T13:41:47.175Z,78
2017-12-25T13:42:47.022Z,78
2017-12-25T13:43:47.376Z,79
2017-12-25T13:44:47.535Z,79
2017-12-25T13:45:47.374Z,79
2017-12-25T13:46:47.208Z,79
2017-12-25T13:47:47.209Z,79
2017-12-25T13:48:47.030Z,79
2017-12-25T13:49:47.395Z,79
2017-12-25T13:50:47.402Z,79
2017-12-25T13:51:47.214Z,79
2017-12-25T13:52:47.400Z,79
2017-12-25T13:53:47.236Z,80
2017-12-25T13:54:47.416Z,80
2017-12-25T13:55:47.177Z,79
2017-12-25T13:56:47.203Z,79
2017-12-25T13:57:47.406Z,79
2017-12-25T13:58:46.994Z,79
2017-12-25T13:59:47.392Z,79
2017-12-25T14:00:47.247Z,79
2017-12-25T14:01:47.195Z,79
2017-12-25T14:02:47.242Z,79
2017-12-25T14:03:47.440Z,79
2017-12-25T14:04:47.235Z,79
2017-12-25T14:05:47.256Z,79
2017-12-25T14:06:47.028Z,79
2017-12-25T14:07:47.449Z,79
2017-12-25T14:08:47.222Z,79
2017-12-25T14:09:47.205Z,79
2017-12-25T14:10:47.244Z,79
2017-12-25T14:11:47.031Z,79
2017-12-25T14:12:47.247Z,79
2017-12-25T14:13:47.413Z,79
2017-12-25T14:14:47.010Z,79
2017-12-25T14:15:47.204Z,79
2017-12-25T14:16:47.397Z,79
2017-12-25T14:17:47.270Z,79
2017-12-25T14:18:47.266Z,80
2017-12-25T14:19:47.090Z,80
2017-12-25T14:20:49.628Z,80
2017-12-25T14:21:47.263Z,80
2017-12-25T14:22:49.573Z,80
2017-12-25T14:23:47.064Z,80
2017-12-25T14:24:47.156Z,80
2017-12-25T14:25:47.165Z,80
2017-12-25T14:26:47.307Z,80
2017-12-25T14:27:47.543Z,80
2017-12-25T14:29:47.530Z,81
2017-12-25T14:30:47.320Z,81
2017-12-25T14:31:47.525Z,81
2017-12-25T14:32:47.393Z,81
2017-12-25T14:33:47.318Z,81
2017-12-25T14:34:47.273Z,81
2017-12-25T14:35:47.558Z,81
2017-12-25T14:37:47.329Z,82
2017-12-25T14:38:47.272Z,82
2017-12-25T14:39:47.350Z,82
2017-12-25T14:40:47.084Z,82
2017-12-25T14:41:47.086Z,82
2017-12-25T14:42:47.148Z,82
2017-12-25T14:43:47.163Z,82
2017-12-25T14:44:47.427Z,82
2017-12-25T14:45:47.436Z,82
2017-12-25T14:46:47.450Z,82
2017-12-25T14:47:47.256Z,82
2017-12-25T14:48:47.361Z,82
2017-12-25T14:49:47.059Z,82
2017-12-25T14:50:47.236Z,82
2017-12-25T14:51:47.251Z,83
2017-12-25T14:52:47.053Z,83
2017-12-25T14:53:47.388Z,83
2017-12-25T14:54:47.323Z,83
2017-12-25T14:55:47.301Z,83
2017-12-25T14:56:47.219Z,83
2017-12-25T14:57:47.072Z,83
2017-12-25T14:58:47.085Z,83
2017-12-25T14:59:47.307Z,84
2017-12-25T15:00:47.300Z,84
2017-12-25T15:01:47.082Z,84